createdAt,value
2018-10-18T00:01:44.307Z,65.80
2018-10-18T00:04:12.869Z,65.10
2018-10-18T00:06:41.689Z,65.10
2018-10-18T00:09:10.894Z,64.90
2018-10-18T00:11:39.084Z,65.10
2018-10-18T00:14:07.749Z,65.10
2018-10-18T00:16:36.152Z,65.00
2018-10-18T00:19:05.030Z,65.20
2018-10-18T00:21:33.548Z,65.20
2018-10-18T00:24:02.453Z,65.10
2018-10-18T00:26:30.590Z,65.10
2018-10-18T00:31:26.077Z,65.30
2018-10-18T00:33:54.565Z,65.30
2018-10-18T00:36:23.184Z,65.30
2018-10-18T00:38:52.004Z,65.30
2018-10-18T00:41:20.247Z,65.20
2018-10-18T00:43:48.425Z,65.10
2018-10-18T00:46:17.452Z,65.20
2018-10-18T00:48:46.088Z,65.30
2018-10-18T00:51:14.719Z,65.20
2018-10-18T00:53:49.815Z,65.30
2018-10-18T00:56:18.785Z,65.30
2018-10-18T00:58:47.284Z,65.20
2018-10-18T01:01:15.803Z,65.30
2018-10-18T01:03:44.632Z,65.20
2018-10-18T01:06:13.273Z,65.10
2018-10-18T01:08:41.412Z,65.00
2018-10-18T01:11:09.912Z,65.10
2018-10-18T01:16:05.640Z,65.20
2018-10-18T01:18:34.122Z,65.20
2018-10-18T01:21:02.738Z,65.20
2018-10-18T01:23:31.203Z,65.10
2018-10-18T01:26:00.165Z,65.10
2018-10-18T01:28:29.038Z,65.00
2018-10-18T01:30:57.241Z,65.70
2018-10-18T01:33:25.444Z,65.10
2018-10-18T01:35:54.013Z,65.10
2018-10-18T01:38:22.723Z,65.00
2018-10-18T01:40:51.392Z,64.90
2018-10-18T01:43:19.650Z,65.00
2018-10-18T01:45:48.188Z,64.80
2018-10-18T01:48:17.405Z,64.60
2018-10-18T01:50:45.806Z,64.80
2018-10-18T01:53:14.395Z,64.70
2018-10-18T01:55:42.617Z,64.70
2018-10-18T01:58:12.168Z,64.60
2018-10-18T02:00:40.618Z,64.60
2018-10-18T02:03:09.512Z,64.80
2018-10-18T02:05:38.132Z,65.00
2018-10-18T02:08:06.451Z,65.00
2018-10-18T02:10:34.797Z,65.00
2018-10-18T02:15:30.106Z,65.00
2018-10-18T02:17:58.972Z,65.60
2018-10-18T02:20:27.119Z,64.80
2018-10-18T02:22:55.792Z,64.80
2018-10-18T02:25:25.108Z,64.80
2018-10-18T02:27:53.691Z,64.90
2018-10-18T02:30:22.375Z,64.80
2018-10-18T02:32:50.854Z,65.80
2018-10-18T02:35:19.269Z,65.00
2018-10-18T02:37:48.051Z,64.80
2018-10-18T02:40:16.891Z,64.80
2018-10-18T02:42:45.050Z,64.70
2018-10-18T02:45:13.847Z,64.70
2018-10-18T02:47:43.049Z,64.90
2018-10-18T02:50:11.245Z,64.70
2018-10-18T02:55:14.128Z,64.80
2018-10-18T02:57:42.297Z,64.70
2018-10-18T03:00:11.531Z,65.00
2018-10-18T03:02:39.939Z,64.80
2018-10-18T03:05:08.824Z,64.70
2018-10-18T03:07:37.058Z,64.70
2018-10-18T03:10:06.278Z,64.70
2018-10-18T03:12:34.812Z,64.70
2018-10-18T03:15:03.012Z,65.00
2018-10-18T03:17:31.209Z,64.80
2018-10-18T03:19:59.830Z,65.00
2018-10-18T03:22:28.346Z,65.60
2018-10-18T03:24:56.665Z,64.80
2018-10-18T03:27:24.888Z,64.90
2018-10-18T03:29:53.118Z,64.80
2018-10-18T03:32:21.648Z,64.80
2018-10-18T03:34:50.706Z,64.70
2018-10-18T03:37:18.920Z,65.40
2018-10-18T03:39:47.805Z,64.50
2018-10-18T03:42:16.057Z,64.50
2018-10-18T03:44:45.066Z,64.40
2018-10-18T03:47:13.478Z,64.30
2018-10-18T03:49:42.054Z,64.20
2018-10-18T03:52:10.284Z,64.10
2018-10-18T03:54:44.962Z,64.00
2018-10-18T03:57:13.502Z,63.90
2018-10-18T03:59:43.208Z,63.90
2018-10-18T04:02:11.712Z,63.90
2018-10-18T04:04:39.896Z,63.90
2018-10-18T04:07:09.130Z,63.90
2018-10-18T04:09:37.306Z,63.80
2018-10-18T04:12:06.490Z,63.80
2018-10-18T04:14:34.670Z,63.70
2018-10-18T04:17:03.450Z,63.80
2018-10-18T04:19:31.620Z,63.80
2018-10-18T04:21:59.830Z,63.80
2018-10-18T04:24:28.045Z,63.80
2018-10-18T04:26:56.220Z,63.80
2018-10-18T04:29:24.450Z,63.80
2018-10-18T04:31:53.043Z,63.80
2018-10-18T04:34:21.652Z,63.80
2018-10-18T04:36:49.820Z,63.80
2018-10-18T04:39:18.790Z,63.60
2018-10-18T04:41:46.982Z,63.70
2018-10-18T04:44:15.150Z,63.70
2018-10-18T04:46:43.330Z,63.70
2018-10-18T04:49:12.290Z,63.70
2018-10-18T04:51:40.620Z,63.60
2018-10-18T04:54:09.046Z,63.60
2018-10-18T04:56:37.670Z,63.50
2018-10-18T04:59:06.040Z,63.50
2018-10-18T05:01:34.426Z,63.50
2018-10-18T05:04:02.733Z,63.40
2018-10-18T05:06:31.209Z,63.40
2018-10-18T05:09:00.617Z,63.60
2018-10-18T05:11:28.919Z,63.50
2018-10-18T05:13:57.407Z,63.40
2018-10-18T05:16:26.344Z,63.40
2018-10-18T05:18:54.850Z,63.40
2018-10-18T05:21:23.563Z,63.40
2018-10-18T05:23:52.215Z,63.40
2018-10-18T05:26:20.488Z,63.30
2018-10-18T05:28:48.665Z,63.30
2018-10-18T05:31:17.631Z,63.30
2018-10-18T05:33:46.162Z,63.30
2018-10-18T05:36:15.095Z,63.20
2018-10-18T05:38:43.251Z,63.30
2018-10-18T05:41:11.414Z,63.30
2018-10-18T05:43:39.938Z,63.30
2018-10-18T05:46:08.360Z,63.20
2018-10-18T05:48:37.351Z,63.30
2018-10-18T05:51:05.591Z,63.20
2018-10-18T05:53:33.896Z,63.20
2018-10-18T05:56:02.279Z,63.20
2018-10-18T05:58:31.224Z,63.20
2018-10-18T06:01:00.042Z,63.20
2018-10-18T06:03:28.436Z,63.30
2018-10-18T06:05:57.272Z,63.30
2018-10-18T06:08:25.884Z,63.40
2018-10-18T06:11:05.657Z,64.00
2018-10-18T06:13:33.866Z,64.50
2018-10-18T06:16:02.068Z,64.60
2018-10-18T06:18:30.656Z,64.50
2018-10-18T06:20:59.339Z,64.50
2018-10-18T11:12:27.988Z,58.00
2018-10-18T11:14:58.228Z,57.50
2018-10-18T11:17:28.024Z,57.80
2018-10-18T11:19:58.628Z,57.50
2018-10-18T11:24:27.165Z,57.40
2018-10-18T11:26:56.754Z,66.50
2018-10-18T11:29:25.962Z,77.80
2018-10-18T11:31:55.545Z,79.30
2018-10-18T11:34:25.103Z,82.10
2018-10-18T11:36:54.357Z,80.70
2018-10-18T11:39:23.685Z,76.40
2018-10-18T11:41:53.100Z,71.30
2018-10-18T11:44:32.998Z,70.00
2018-10-18T11:47:02.466Z,68.50
2018-10-18T11:49:32.801Z,68.20
2018-10-18T11:52:02.365Z,68.70
2018-10-18T11:57:00.986Z,64.00
2018-10-18T11:59:30.529Z,64.10
2018-10-18T12:02:00.154Z,66.50
2018-10-18T12:04:29.530Z,66.20
2018-10-18T12:07:00.068Z,65.60
2018-10-18T12:09:29.646Z,65.10
2018-10-18T12:11:59.189Z,63.30
2018-10-18T12:14:28.710Z,62.70
2018-10-18T12:16:59.207Z,61.70
2018-10-18T12:19:28.509Z,61.40
2018-10-18T12:21:58.372Z,67.00
2018-10-18T12:24:27.970Z,73.70
2018-10-18T12:26:57.641Z,75.70
2018-10-18T12:29:26.994Z,76.00
2018-10-18T12:31:56.261Z,75.90
2018-10-18T12:34:25.380Z,75.10
2018-10-18T12:36:55.509Z,75.00
2018-10-18T12:39:24.755Z,72.40
2018-10-18T12:41:54.032Z,70.20
2018-10-18T12:44:24.917Z,70.10
2018-10-18T12:46:54.871Z,70.40
2018-10-18T12:49:24.354Z,70.40
2018-10-18T12:51:53.625Z,70.80
2018-10-18T12:54:23.017Z,70.40
2018-10-18T12:56:52.104Z,71.00
2018-10-18T12:59:21.756Z,71.10
2018-10-18T13:01:51.156Z,69.90
2018-10-18T13:04:20.913Z,69.80
2018-10-18T13:06:50.041Z,69.30
2018-10-18T13:09:22.058Z,70.60
2018-10-18T13:11:51.734Z,70.80
2018-10-18T13:14:21.328Z,70.00
2018-10-18T13:16:51.084Z,69.00
2018-10-18T13:19:20.325Z,68.40
2018-10-18T13:21:50.288Z,67.50
2018-10-18T13:24:19.991Z,68.40
2018-10-18T13:26:53.435Z,67.00
2018-10-18T13:29:22.635Z,66.50
2018-10-18T13:31:51.903Z,66.70
2018-10-18T13:34:22.217Z,66.60
2018-10-18T13:36:51.855Z,68.30
2018-10-18T13:39:21.029Z,68.30
2018-10-18T13:41:50.632Z,68.00
2018-10-18T13:44:20.663Z,68.60
2018-10-18T13:46:50.076Z,67.40
2018-10-18T13:49:19.570Z,66.50
2018-10-18T13:51:49.074Z,66.70
2018-10-18T13:54:18.481Z,66.50
2018-10-18T13:56:47.984Z,66.70
2018-10-18T13:59:28.237Z,64.60
2018-10-18T14:01:57.830Z,65.90
2018-10-18T14:04:27.432Z,60.40
2018-10-18T14:06:56.647Z,58.00
2018-10-18T14:09:25.880Z,58.60
2018-10-18T14:11:55.449Z,59.30
2018-10-18T14:14:24.690Z,59.50
2018-10-18T14:16:53.959Z,59.40
2018-10-18T14:19:23.828Z,59.40
2018-10-18T14:21:53.191Z,60.20
2018-10-18T14:24:23.091Z,60.80
2018-10-18T14:26:54.377Z,61.00
2018-10-18T14:29:23.623Z,62.30
2018-10-18T14:31:53.056Z,63.00
2018-10-18T14:34:22.538Z,63.00
2018-10-18T14:36:51.889Z,62.60
2018-10-18T14:39:21.356Z,63.10
2018-10-18T14:41:50.399Z,63.60
2018-10-18T14:44:19.703Z,63.60
2018-10-18T14:46:49.005Z,63.20
2018-10-18T14:49:18.256Z,62.20
2018-10-18T14:51:47.452Z,61.30
2018-10-18T14:54:17.083Z,60.40
2018-10-18T14:56:53.233Z,59.80
2018-10-18T14:59:24.652Z,58.60
2018-10-18T15:01:53.943Z,57.40
